createdAt,value
2022-08-30T00:00:49.582Z,50.877174
2022-08-30T00:01:49.538Z,50.877159
2022-08-30T00:02:49.630Z,50.877140
2022-08-30T00:03:49.617Z,50.877178
2022-08-30T00:04:49.502Z,50.877182
2022-08-30T00:05:49.503Z,50.877171
2022-08-30T00:06:49.531Z,50.877155
2022-08-30T00:07:49.495Z,50.877171
2022-08-30T00:08:49.505Z,50.877193
2022-08-30T00:09:49.465Z,50.877213
2022-08-30T00:10:49.477Z,50.877201
2022-08-30T00:11:49.465Z,50.877197
2022-08-30T00:12:49.441Z,50.877201
2022-08-30T00:13:49.420Z,50.877205
2022-08-30T00:14:49.422Z,50.877201
2022-08-30T00:15:49.471Z,50.877190
2022-08-30T00:16:49.422Z,50.877186
2022-08-30T00:17:49.427Z,50.877209
2022-08-30T00:18:49.375Z,50.877216
2022-08-30T00:19:49.378Z,50.877197
2022-08-30T00:20:49.346Z,50.877193
2022-08-30T00:21:49.360Z,50.877201
2022-08-30T00:22:49.332Z,50.877201
2022-08-30T00:23:49.352Z,50.877205
2022-08-30T00:24:49.326Z,50.877224
2022-08-30T00:25:49.314Z,50.877197
2022-08-30T00:26:49.301Z,50.877182
2022-08-30T00:27:49.326Z,50.877186
2022-08-30T00:28:49.319Z,50.877178
2022-08-30T00:29:49.290Z,50.877190
2022-08-30T00:30:49.314Z,50.877209
2022-08-30T00:31:49.255Z,50.877186
2022-08-30T00:32:49.240Z,50.877178
2022-08-30T00:33:49.255Z,50.877171
2022-08-30T00:34:49.214Z,50.877148
2022-08-30T00:35:49.235Z,50.877190
2022-08-30T00:36:49.217Z,50.877171
2022-08-30T00:37:49.179Z,50.877174
2022-08-30T00:38:49.173Z,50.877213
2022-08-30T00:39:49.161Z,50.877213
2022-08-30T00:40:49.170Z,50.877201
2022-08-30T00:41:49.165Z,50.877197
2022-08-30T00:42:50.625Z,50.877201
2022-08-30T00:43:49.137Z,50.877193
2022-08-30T00:44:49.131Z,50.877178
2022-08-30T00:45:49.176Z,50.877205
2022-08-30T00:46:49.123Z,50.877178
2022-08-30T00:47:49.108Z,50.877171
2022-08-30T00:48:49.063Z,50.877182
2022-08-30T00:49:49.076Z,50.877171
2022-08-30T00:50:49.062Z,50.877190
2022-08-30T00:51:49.092Z,50.877167
2022-08-30T00:52:49.028Z,50.877182
2022-08-30T00:53:49.046Z,50.877193
2022-08-30T00:54:49.023Z,50.877201
2022-08-30T00:55:49.033Z,50.877209
2022-08-30T00:56:49.120Z,50.877209
2022-08-30T00:57:49.015Z,50.877193
2022-08-30T00:58:48.987Z,50.877159
2022-08-30T00:59:48.971Z,50.877159
2022-08-30T01:00:48.973Z,50.877171
2022-08-30T01:01:49.019Z,50.877136
2022-08-30T01:02:48.954Z,50.877178
2022-08-30T01:03:48.923Z,50.877197
2022-08-30T01:04:48.919Z,50.877193
2022-08-30T01:05:48.903Z,50.877228
2022-08-30T01:06:49.920Z,50.877186
2022-08-30T01:07:48.890Z,50.877201
2022-08-30T01:08:48.880Z,50.877209
2022-08-30T01:09:48.890Z,50.877171
2022-08-30T01:10:48.855Z,50.877167
2022-08-30T01:11:48.903Z,50.877148
2022-08-30T01:12:48.831Z,50.877148
2022-08-30T01:13:48.848Z,50.877140
2022-08-30T01:14:48.832Z,50.877148
2022-08-30T01:15:48.834Z,50.877151
2022-08-30T01:16:48.813Z,50.877163
2022-08-30T01:17:48.875Z,50.877216
2022-08-30T01:18:48.827Z,50.877209
2022-08-30T01:19:48.800Z,50.877209
2022-08-30T01:20:48.766Z,50.877171
2022-08-30T01:21:48.767Z,50.877197
2022-08-30T01:22:48.738Z,50.877197
2022-08-30T01:23:48.759Z,50.877190
2022-08-30T01:24:48.716Z,50.877155
2022-08-30T01:25:48.736Z,50.877129
2022-08-30T01:26:48.691Z,50.877113
2022-08-30T01:27:48.715Z,50.877125
2022-08-30T01:28:48.685Z,50.877121
2022-08-30T01:29:48.663Z,50.877098
2022-08-30T01:30:48.744Z,50.877113
2022-08-30T01:31:48.698Z,50.877151
2022-08-30T01:32:48.635Z,50.877171
2022-08-30T01:33:48.618Z,50.877171
2022-08-30T01:34:48.608Z,50.877197
2022-08-30T01:35:48.628Z,50.877186
2022-08-30T01:36:48.596Z,50.877113
2022-08-30T01:37:48.617Z,50.877125
2022-08-30T01:38:48.582Z,50.877094
2022-08-30T01:39:48.577Z,50.877113
2022-08-30T01:40:48.564Z,50.877125
2022-08-30T01:41:48.556Z,50.877178
2022-08-30T01:42:48.552Z,50.877151
2022-08-30T01:43:48.528Z,50.877125
2022-08-30T01:44:48.526Z,50.877125
2022-08-30T01:45:48.542Z,50.877171
2022-08-30T01:46:48.499Z,50.877182
2022-08-30T01:47:48.501Z,50.877190
2022-08-30T01:48:53.107Z,50.877197
2022-08-30T01:49:49.486Z,50.877178
2022-08-30T01:50:48.459Z,50.877190
2022-08-30T01:51:48.447Z,50.877167
2022-08-30T01:52:48.445Z,50.877209
2022-08-30T01:53:48.446Z,50.877193
2022-08-30T01:54:48.436Z,50.877167
2022-08-30T01:55:48.412Z,50.877167
2022-08-30T01:56:48.407Z,50.877151
2022-08-30T01:57:48.380Z,50.877155
2022-08-30T01:58:48.371Z,50.877125
2022-08-30T01:59:48.383Z,50.877163
2022-08-30T02:00:48.394Z,50.877163
2022-08-30T02:01:48.412Z,50.877155
2022-08-30T02:02:48.339Z,50.877148
2022-08-30T02:03:48.394Z,50.877151
2022-08-30T02:04:48.307Z,50.877140
2022-08-30T02:05:48.321Z,50.877132
2022-08-30T02:06:48.295Z,50.877171
2022-08-30T02:07:48.289Z,50.877186
2022-08-30T02:08:48.279Z,50.877174
2022-08-30T02:09:48.253Z,50.877144
2022-08-30T02:10:48.254Z,50.877148
2022-08-30T02:11:48.254Z,50.877167
2022-08-30T02:12:48.242Z,50.877159
2022-08-30T02:13:48.216Z,50.877167
2022-08-30T02:14:48.223Z,50.877148
2022-08-30T02:15:48.198Z,50.877167
2022-08-30T02:16:48.287Z,50.877171
2022-08-30T02:17:48.170Z,50.877163
2022-08-30T02:18:48.207Z,50.877163
2022-08-30T02:19:48.190Z,50.877171
2022-08-30T02:20:48.145Z,50.877174
2022-08-30T02:21:48.198Z,50.877171
2022-08-30T02:22:49.507Z,50.877159
2022-08-30T02:23:48.141Z,50.877174
2022-08-30T02:24:48.113Z,50.877174
2022-08-30T02:25:48.098Z,50.877171
2022-08-30T02:26:48.074Z,50.877167
2022-08-30T02:27:49.081Z,50.877167
2022-08-30T02:28:50.067Z,50.877171
2022-08-30T02:29:48.074Z,50.877182
2022-08-30T02:30:48.112Z,50.877190
2022-08-30T02:31:48.064Z,50.877182
2022-08-30T02:32:48.022Z,50.877159
2022-08-30T02:33:48.088Z,50.877174
2022-08-30T02:34:48.010Z,50.877178
2022-08-30T02:35:48.005Z,50.877178
2022-08-30T02:36:48.003Z,50.877190
2022-08-30T02:37:47.987Z,50.877186
2022-08-30T02:38:47.989Z,50.877171
2022-08-30T02:39:47.966Z,50.877174
2022-08-30T02:40:47.946Z,50.877159
2022-08-30T02:41:47.956Z,50.877178
2022-08-30T02:42:47.938Z,50.877174
2022-08-30T02:43:47.930Z,50.877205
2022-08-30T02:44:47.911Z,50.877178
2022-08-30T02:45:47.937Z,50.877171
2022-08-30T02:46:47.955Z,50.877167
2022-08-30T02:47:48.887Z,50.877197
2022-08-30T02:48:47.895Z,50.877144
2022-08-30T02:49:47.858Z,50.877174
2022-08-30T02:50:47.842Z,50.877159
2022-08-30T02:51:47.850Z,50.877171
2022-08-30T02:52:48.375Z,50.877182
2022-08-30T02:53:47.845Z,50.877182
2022-08-30T02:54:47.822Z,50.877190
2022-08-30T02:55:47.812Z,50.877159
2022-08-30T02:56:47.959Z,50.877167
2022-08-30T02:57:47.781Z,50.877178
2022-08-30T02:58:47.781Z,50.877190
2022-08-30T02:59:47.751Z,50.877178
2022-08-30T03:00:47.830Z,50.877167
2022-08-30T03:01:47.760Z,50.877167
2022-08-30T03:02:47.716Z,50.877178
2022-08-30T03:03:47.731Z,50.877144
2022-08-30T03:04:47.707Z,50.877140
2022-08-30T03:05:47.784Z,50.877144
2022-08-30T03:06:47.688Z,50.877155
2022-08-30T03:07:47.695Z,50.877171
2022-08-30T03:08:47.674Z,50.877171
2022-08-30T03:09:47.646Z,50.877186
2022-08-30T03:10:47.657Z,50.877182
2022-08-30T03:11:47.644Z,50.877163
2022-08-30T03:12:47.623Z,50.877167
2022-08-30T03:13:47.600Z,50.877178
2022-08-30T03:14:47.597Z,50.877174
2022-08-30T03:15:47.602Z,50.877186
2022-08-30T03:16:47.582Z,50.877193
2022-08-30T03:17:47.579Z,50.877182
2022-08-30T03:18:47.569Z,50.877174
2022-08-30T03:19:47.554Z,50.877190
2022-08-30T03:20:54.177Z,50.877197
2022-08-30T03:21:48.543Z,50.877155
2022-08-30T03:22:47.518Z,50.877167
2022-08-30T03:23:47.508Z,50.877190
2022-08-30T03:24:47.490Z,50.877193
2022-08-30T03:25:47.473Z,50.877190
2022-08-30T03:26:48.476Z,50.877201
2022-08-30T03:27:47.510Z,50.877201
2022-08-30T03:28:47.456Z,50.877193
2022-08-30T03:29:47.435Z,50.877193
2022-08-30T03:30:47.443Z,50.877174
2022-08-30T03:31:52.866Z,50.877201
2022-08-30T03:32:48.441Z,50.877197
2022-08-30T03:33:47.391Z,50.877186
2022-08-30T03:34:47.389Z,50.877193
2022-08-30T03:35:47.386Z,50.877155
2022-08-30T03:36:47.366Z,50.877193
2022-08-30T03:37:47.384Z,50.877220
2022-08-30T03:38:47.370Z,50.877174
2022-08-30T03:39:47.327Z,50.877148
2022-08-30T03:40:47.342Z,50.877216
2022-08-30T03:41:47.338Z,50.877197
2022-08-30T03:42:47.306Z,50.877186
2022-08-30T03:43:47.297Z,50.877155
2022-08-30T03:44:47.282Z,50.877174
2022-08-30T03:45:47.318Z,50.877171
2022-08-30T03:46:47.274Z,50.877163
2022-08-30T03:47:47.260Z,50.877171
2022-08-30T03:48:47.261Z,50.877186
2022-08-30T03:49:47.244Z,50.877182
2022-08-30T03:50:47.218Z,50.877178
2022-08-30T03:51:47.260Z,50.877205
2022-08-30T03:52:47.213Z,50.877190
2022-08-30T03:53:47.207Z,50.877163
2022-08-30T03:54:47.185Z,50.877171
2022-08-30T03:55:47.182Z,50.877182
2022-08-30T03:56:47.166Z,50.877182
2022-08-30T03:57:47.171Z,50.877171
2022-08-30T03:58:47.156Z,50.877190
2022-08-30T03:59:47.153Z,50.877205
2022-08-30T04:00:47.147Z,50.877201
2022-08-30T04:01:47.137Z,50.877186
2022-08-30T04:02:47.133Z,50.877190
2022-08-30T04:03:47.100Z,50.877186
2022-08-30T04:04:47.106Z,50.877186
2022-08-30T04:05:47.071Z,50.877171
2022-08-30T04:06:47.070Z,50.877186
2022-08-30T04:07:47.051Z,50.877193
2022-08-30T04:08:47.091Z,50.877174
2022-08-30T04:09:47.081Z,50.877178
2022-08-30T04:10:47.031Z,50.877186
2022-08-30T04:11:47.060Z,50.877174
2022-08-30T04:12:49.724Z,50.877163
2022-08-30T04:13:48.138Z,50.877171
2022-08-30T04:14:46.983Z,50.877224
2022-08-30T04:15:46.980Z,50.877285
2022-08-30T04:16:47.096Z,50.877281
2022-08-30T04:17:46.945Z,50.877300
2022-08-30T04:18:46.947Z,50.877293
2022-08-30T04:19:46.956Z,50.877296
2022-08-30T04:20:46.927Z,50.877300
2022-08-30T04:21:47.918Z,50.877369
2022-08-30T04:22:46.957Z,50.877293
2022-08-30T04:23:46.925Z,50.877293
2022-08-30T04:24:46.878Z,50.877285
2022-08-30T04:25:46.897Z,50.877285
2022-08-30T04:26:46.873Z,50.877270
2022-08-30T04:27:46.847Z,50.877247
2022-08-30T04:28:46.841Z,50.877327
2022-08-30T04:29:46.841Z,50.877312
2022-08-30T04:30:46.851Z,50.877361
2022-08-30T04:31:46.908Z,50.877407
2022-08-30T04:32:46.809Z,50.877293
2022-08-30T04:33:46.792Z,50.877251
2022-08-30T04:34:46.809Z,50.877266
2022-08-30T04:35:46.804Z,50.877178
2022-08-30T04:36:48.387Z,50.877110
2022-08-30T04:37:46.770Z,50.877094
2022-08-30T04:38:46.765Z,50.877094
2022-08-30T04:39:46.779Z,50.877090
2022-08-30T04:40:46.773Z,50.877121
2022-08-30T04:41:46.711Z,50.877087
2022-08-30T04:42:46.764Z,50.877071
2022-08-30T04:43:46.725Z,50.877136
2022-08-30T04:44:46.701Z,50.877140
2022-08-30T04:45:46.736Z,50.877151
2022-08-30T04:46:46.686Z,50.877148
2022-08-30T04:47:46.678Z,50.877144
2022-08-30T04:48:46.681Z,50.877148
2022-08-30T04:49:46.657Z,50.877129
2022-08-30T04:50:46.659Z,50.877155
2022-08-30T04:51:46.619Z,50.877148
2022-08-30T04:52:46.624Z,50.877163
2022-08-30T04:53:46.679Z,50.877167
2022-08-30T04:54:46.602Z,50.877171
2022-08-30T04:55:46.581Z,50.877182
2022-08-30T04:56:46.571Z,50.877155
2022-08-30T04:57:46.565Z,50.877148
2022-08-30T04:58:46.573Z,50.877140
2022-08-30T04:59:46.532Z,50.877167
2022-08-30T05:00:46.589Z,50.877163
2022-08-30T05:01:46.674Z,50.877159
2022-08-30T05:02:46.588Z,50.877125
2022-08-30T05:03:46.507Z,50.877136
2022-08-30T05:04:46.557Z,50.877125
2022-08-30T05:05:46.490Z,50.877136
2022-08-30T05:06:46.468Z,50.877117
2022-08-30T05:07:46.459Z,50.877171
2022-08-30T05:08:46.863Z,50.877186
2022-08-30T05:09:46.471Z,50.877178
2022-08-30T05:10:46.442Z,50.877186
2022-08-30T05:11:46.422Z,50.877190
2022-08-30T05:12:46.405Z,50.877182
2022-08-30T05:13:46.415Z,50.877186
2022-08-30T05:14:46.411Z,50.877174
2022-08-30T05:15:46.381Z,50.877167
2022-08-30T05:16:46.490Z,50.877144
2022-08-30T05:17:46.371Z,50.877155
2022-08-30T05:18:46.362Z,50.877094
2022-08-30T05:19:46.346Z,50.877041
2022-08-30T05:20:46.328Z,50.877110
2022-08-30T05:21:46.315Z,50.877094
2022-08-30T05:22:46.331Z,50.877129
2022-08-30T05:23:46.296Z,50.877144
2022-08-30T05:24:46.305Z,50.877129
2022-08-30T05:25:46.273Z,50.877132
2022-08-30T05:27:46.279Z,50.877094
2022-08-30T05:28:46.243Z,50.877159
2022-08-30T05:29:46.241Z,50.877151
2022-08-30T05:30:46.230Z,50.877178
2022-08-30T05:31:46.281Z,50.877220
2022-08-30T05:32:46.212Z,50.877220
2022-08-30T05:33:46.212Z,50.877155
2022-08-30T05:34:46.215Z,50.877178
2022-08-30T05:35:46.181Z,50.877140
2022-08-30T05:36:46.164Z,50.877155
2022-08-30T05:37:46.164Z,50.877201
2022-08-30T05:38:46.141Z,50.877224
2022-08-30T05:39:51.808Z,50.877251
2022-08-30T05:40:46.279Z,50.877174
2022-08-30T05:41:46.118Z,50.877148
2022-08-30T05:42:46.110Z,50.877136
2022-08-30T05:43:46.103Z,50.877136
2022-08-30T05:44:46.092Z,50.877140
2022-08-30T05:45:46.096Z,50.877155
2022-08-30T05:46:46.069Z,50.877140
2022-08-30T05:47:46.077Z,50.877132
2022-08-30T05:48:46.069Z,50.877148
2022-08-30T05:49:46.060Z,50.877155
2022-08-30T05:50:46.032Z,50.877159
2022-08-30T05:51:46.048Z,50.877163
2022-08-30T05:52:46.004Z,50.877178
2022-08-30T05:53:46.009Z,50.877171
2022-08-30T05:54:45.991Z,50.877163
2022-08-30T05:55:45.988Z,50.877178
2022-08-30T05:56:45.986Z,50.877178
2022-08-30T05:57:45.963Z,50.877186
2022-08-30T05:58:45.960Z,50.877182
2022-08-30T05:59:45.963Z,50.877178
2022-08-30T06:00:45.932Z,50.877167
2022-08-30T06:01:46.011Z,50.877171
2022-08-30T06:02:45.969Z,50.877178
2022-08-30T06:03:45.911Z,50.877178
2022-08-30T06:04:45.897Z,50.877193
2022-08-30T06:06:45.914Z,50.877190
2022-08-30T06:07:45.861Z,50.877193
2022-08-30T06:08:45.835Z,50.877197
2022-08-30T06:09:45.852Z,50.877186
2022-08-30T06:10:45.848Z,50.877182
2022-08-30T06:11:45.827Z,50.877201
2022-08-30T06:12:45.802Z,50.877190
2022-08-30T06:13:45.812Z,50.877197
2022-08-30T06:14:45.810Z,50.877197
2022-08-30T06:15:45.892Z,50.877182
2022-08-30T06:16:45.976Z,50.877190
2022-08-30T06:17:45.768Z,50.877190
2022-08-30T06:18:45.729Z,50.877186
2022-08-30T06:19:45.726Z,50.877193
2022-08-30T06:20:46.713Z,50.877205
2022-08-30T06:21:45.734Z,50.877209
2022-08-30T06:22:45.704Z,50.877224
2022-08-30T06:23:45.693Z,50.877205
2022-08-30T06:24:58.759Z,50.877174
2022-08-30T06:25:47.671Z,50.877193
2022-08-30T06:26:45.655Z,50.877201
2022-08-30T06:27:45.669Z,50.877178
2022-08-30T06:28:45.631Z,50.877193
2022-08-30T06:29:45.635Z,50.877205
2022-08-30T06:30:45.619Z,50.877209
2022-08-30T06:31:45.642Z,50.877205
2022-08-30T06:32:45.613Z,50.877205
2022-08-30T06:33:45.586Z,50.877193
2022-08-30T06:34:45.578Z,50.877201
2022-08-30T06:35:58.091Z,50.877193
2022-08-30T06:36:46.561Z,50.877216
2022-08-30T06:37:45.568Z,50.877205
2022-08-30T06:38:45.535Z,50.877190
2022-08-30T06:39:45.532Z,50.877213
2022-08-30T06:40:45.598Z,50.877197
2022-08-30T06:41:45.513Z,50.877258
2022-08-30T06:42:45.516Z,50.877224
2022-08-30T06:43:48.891Z,50.877216
2022-08-30T06:44:46.502Z,50.877182
2022-08-30T06:45:45.486Z,50.877193
2022-08-30T06:46:45.527Z,50.877216
2022-08-30T06:47:45.461Z,50.877209
2022-08-30T06:48:48.174Z,50.877205
2022-08-30T06:49:45.445Z,50.877193
2022-08-30T06:50:45.451Z,50.877216
2022-08-30T06:51:45.411Z,50.877205
2022-08-30T06:52:45.403Z,50.877262
2022-08-30T06:53:45.386Z,50.877235
2022-08-30T06:54:46.386Z,50.877232
2022-08-30T06:55:45.387Z,50.877186
2022-08-30T06:56:58.504Z,50.877228
2022-08-30T06:57:47.365Z,50.877224
2022-08-30T06:58:45.373Z,50.877243
2022-08-30T06:59:45.361Z,50.877220
2022-08-30T07:00:45.323Z,50.877232
2022-08-30T07:01:45.352Z,50.877235
2022-08-30T07:02:45.377Z,50.877186
2022-08-30T07:03:45.325Z,50.877190
2022-08-30T07:04:45.289Z,50.877232
2022-08-30T07:05:45.278Z,50.877182
2022-08-30T07:06:45.269Z,50.877171
2022-08-30T07:07:45.269Z,50.877167
2022-08-30T07:08:45.253Z,50.877159
2022-08-30T07:09:45.263Z,50.877163
2022-08-30T07:10:45.228Z,50.877182
2022-08-30T07:11:45.212Z,50.877186
2022-08-30T07:12:45.196Z,50.877178
2022-08-30T07:13:45.207Z,50.877186
2022-08-30T07:14:45.208Z,50.877167
2022-08-30T07:15:45.200Z,50.877148
2022-08-30T07:16:45.165Z,50.877163
2022-08-30T07:17:45.172Z,50.877167
2022-08-30T07:18:45.155Z,50.877178
2022-08-30T07:19:45.139Z,50.877171
2022-08-30T07:20:45.131Z,50.877163
2022-08-30T07:21:45.138Z,50.877174
2022-08-30T07:22:45.121Z,50.877178
2022-08-30T07:23:45.108Z,50.877167
2022-08-30T07:24:45.084Z,50.877174
2022-08-30T07:25:45.070Z,50.877186
2022-08-30T07:26:45.086Z,50.877193
2022-08-30T07:27:45.060Z,50.877190
2022-08-30T07:28:45.233Z,50.877197
2022-08-30T07:29:45.060Z,50.877182
2022-08-30T07:30:45.025Z,50.877159
2022-08-30T07:31:45.012Z,50.877186
2022-08-30T07:32:45.012Z,50.877201
2022-08-30T07:33:45.019Z,50.877205
2022-08-30T07:34:44.990Z,50.877201
2022-08-30T07:35:44.984Z,50.877205
2022-08-30T07:36:44.970Z,50.877148
2022-08-30T07:37:44.967Z,50.877132
2022-08-30T07:38:44.943Z,50.877121
2022-08-30T07:39:47.736Z,50.877151
2022-08-30T07:40:45.973Z,50.877163
2022-08-30T07:41:44.921Z,50.877151
2022-08-30T07:42:44.907Z,50.877171
2022-08-30T07:43:44.894Z,50.877224
2022-08-30T07:44:44.884Z,50.877243
2022-08-30T07:45:44.901Z,50.877213
2022-08-30T07:46:44.966Z,50.877197
2022-08-30T07:47:44.855Z,50.877220
2022-08-30T07:48:44.852Z,50.877205
2022-08-30T07:49:44.831Z,50.877205
2022-08-30T07:50:44.827Z,50.877197
2022-08-30T07:51:44.832Z,50.877213
2022-08-30T07:52:44.828Z,50.877205
2022-08-30T07:53:44.796Z,50.877216
2022-08-30T07:54:44.803Z,50.877174
2022-08-30T07:55:44.782Z,50.877178
2022-08-30T07:56:44.784Z,50.877213
2022-08-30T07:57:44.783Z,50.877228
2022-08-30T07:58:44.750Z,50.877254
2022-08-30T07:59:44.747Z,50.877220
2022-08-30T08:00:44.726Z,50.877174
2022-08-30T08:01:44.797Z,50.877174
2022-08-30T08:02:44.809Z,50.877197
2022-08-30T08:03:44.711Z,50.877171
2022-08-30T08:04:44.705Z,50.877193
2022-08-30T08:05:44.687Z,50.877205
2022-08-30T08:06:44.678Z,50.877178
2022-08-30T08:07:44.666Z,50.877213
2022-08-30T08:08:44.672Z,50.877201
2022-08-30T08:09:44.647Z,50.877171
2022-08-30T08:10:44.628Z,50.877186
2022-08-30T08:11:44.643Z,50.877220
2022-08-30T08:12:44.611Z,50.877213
2022-08-30T08:14:00.620Z,50.877167
2022-08-30T08:14:45.604Z,50.877178
2022-08-30T08:15:44.633Z,50.877201
2022-08-30T08:16:44.581Z,50.877239
2022-08-30T08:17:44.574Z,50.877235
2022-08-30T08:18:44.570Z,50.877201
2022-08-30T08:19:44.563Z,50.877209
2022-08-30T08:20:44.559Z,50.877182
2022-08-30T08:21:44.541Z,50.877190
2022-08-30T08:22:44.529Z,50.877178
2022-08-30T08:23:44.546Z,50.877163
2022-08-30T08:24:44.522Z,50.877197
2022-08-30T08:25:44.510Z,50.877193
2022-08-30T08:26:45.426Z,50.877174
2022-08-30T08:27:44.471Z,50.877220
2022-08-30T08:28:44.471Z,50.877213
2022-08-30T08:29:44.504Z,50.877235
2022-08-30T08:30:48.129Z,50.877213
2022-08-30T08:31:45.471Z,50.877201
2022-08-30T08:32:44.428Z,50.877216
2022-08-30T08:33:44.418Z,50.877205
2022-08-30T08:34:44.426Z,50.877239
2022-08-30T08:35:44.529Z,50.877220
2022-08-30T08:36:44.409Z,50.877209
2022-08-30T08:37:44.395Z,50.877190
2022-08-30T08:38:44.389Z,50.877205
2022-08-30T08:39:44.375Z,50.877186
2022-08-30T08:40:44.390Z,50.877193
2022-08-30T08:41:44.402Z,50.877213
2022-08-30T08:42:44.342Z,50.877209
2022-08-30T08:43:44.325Z,50.877213
2022-08-30T08:44:44.387Z,50.877213
2022-08-30T08:45:44.318Z,50.877186
2022-08-30T08:46:45.496Z,50.877201
2022-08-30T08:47:44.319Z,50.877182
2022-08-30T08:48:58.980Z,50.877190
2022-08-30T08:49:45.286Z,50.877193
2022-08-30T08:50:44.275Z,50.877209
2022-08-30T08:51:44.285Z,50.877205
2022-08-30T08:52:44.246Z,50.877193
2022-08-30T08:53:46.583Z,50.877213
2022-08-30T08:54:45.237Z,50.877193
2022-08-30T08:55:44.275Z,50.877193
2022-08-30T08:56:44.226Z,50.877205
2022-08-30T08:57:44.240Z,50.877205
2022-08-30T08:58:44.206Z,50.877220
2022-08-30T08:59:44.195Z,50.877213
2022-08-30T09:00:44.173Z,50.877209
2022-08-30T09:01:44.211Z,50.877197
2022-08-30T09:02:44.179Z,50.877197
2022-08-30T09:03:44.147Z,50.877197
2022-08-30T09:04:44.190Z,50.877186
2022-08-30T09:05:44.137Z,50.877197
2022-08-30T09:06:45.388Z,50.877209
2022-08-30T09:07:44.140Z,50.877213
2022-08-30T09:08:44.101Z,50.877228
2022-08-30T09:09:44.090Z,50.877209
2022-08-30T09:10:51.378Z,50.877213
2022-08-30T09:11:46.075Z,50.877209
2022-08-30T09:12:44.073Z,50.877197
2022-08-30T09:13:44.081Z,50.877190
2022-08-30T09:14:45.996Z,50.877186
2022-08-30T09:15:44.077Z,50.877197
2022-08-30T09:16:44.019Z,50.877193
2022-08-30T09:17:44.015Z,50.877193
2022-08-30T09:18:45.466Z,50.877193
2022-08-30T09:19:44.061Z,50.877190
2022-08-30T09:20:43.995Z,50.877182
2022-08-30T09:21:43.993Z,50.877132
2022-08-30T09:22:46.537Z,50.877159
2022-08-30T09:23:43.978Z,50.877190
2022-08-30T09:24:43.950Z,50.877190
2022-08-30T09:25:43.941Z,50.877159
2022-08-30T09:26:43.923Z,50.877129
2022-08-30T09:27:43.927Z,50.877167
2022-08-30T09:28:43.937Z,50.877163
2022-08-30T09:29:43.902Z,50.877174
2022-08-30T09:30:43.930Z,50.877159
2022-08-30T09:31:43.890Z,50.877182
2022-08-30T09:32:43.875Z,50.877178
2022-08-30T09:33:43.863Z,50.877163
2022-08-30T09:34:43.878Z,50.877178
2022-08-30T09:35:43.837Z,50.877148
2022-08-30T09:36:43.853Z,50.877144
2022-08-30T09:37:43.841Z,50.877151
2022-08-30T09:38:43.818Z,50.877140
2022-08-30T09:39:43.824Z,50.877148
2022-08-30T09:40:43.850Z,50.877159
2022-08-30T09:41:43.795Z,50.877178
2022-08-30T09:42:43.771Z,50.877132
2022-08-30T09:43:43.791Z,50.877155
2022-08-30T09:44:43.756Z,50.877144
2022-08-30T09:45:43.806Z,50.877167
2022-08-30T09:46:43.730Z,50.877209
2022-08-30T09:47:43.737Z,50.877220
2022-08-30T09:48:44.726Z,50.877163
2022-08-30T09:49:43.767Z,50.877163
2022-08-30T09:50:43.698Z,50.877174
2022-08-30T09:51:43.694Z,50.877151
2022-08-30T09:52:43.676Z,50.877110
2022-08-30T09:53:55.699Z,50.877125
2022-08-30T09:54:44.679Z,50.877148
2022-08-30T09:55:43.663Z,50.877159
2022-08-30T09:56:43.647Z,50.877159
2022-08-30T09:57:43.641Z,50.877151
2022-08-30T09:58:43.646Z,50.877083
2022-08-30T09:59:43.617Z,50.877106
2022-08-30T10:00:43.613Z,50.877148
2022-08-30T10:01:43.644Z,50.877171
2022-08-30T10:02:43.625Z,50.877148
2022-08-30T10:03:43.584Z,50.877159
2022-08-30T10:04:43.566Z,50.877178
2022-08-30T10:05:43.557Z,50.877174
2022-08-30T10:06:43.563Z,50.877174
2022-08-30T10:07:43.567Z,50.877171
2022-08-30T10:08:43.789Z,50.877148
2022-08-30T10:09:43.531Z,50.877163
2022-08-30T10:10:45.890Z,50.877151
2022-08-30T10:11:44.535Z,50.877140
2022-08-30T10:12:43.504Z,50.877209
2022-08-30T10:13:43.521Z,50.877190
2022-08-30T10:14:43.506Z,50.877178
2022-08-30T10:15:43.467Z,50.877186
2022-08-30T10:16:43.561Z,50.877190
2022-08-30T10:17:43.513Z,50.877205
2022-08-30T10:18:43.523Z,50.877159
2022-08-30T10:19:43.465Z,50.877182
2022-08-30T10:20:43.453Z,50.877178
2022-08-30T10:21:43.423Z,50.877174
2022-08-30T10:22:43.393Z,50.877190
2022-08-30T10:23:43.394Z,50.877155
2022-08-30T10:24:43.933Z,50.877151
2022-08-30T10:25:43.406Z,50.877163
2022-08-30T10:26:43.378Z,50.877167
2022-08-30T10:27:43.357Z,50.877151
2022-08-30T10:28:43.350Z,50.877140
2022-08-30T10:29:43.497Z,50.877159
2022-08-30T10:30:43.326Z,50.877144
2022-08-30T10:31:43.327Z,50.877155
2022-08-30T10:32:43.304Z,50.877182
2022-08-30T10:33:43.309Z,50.877182
2022-08-30T10:34:43.295Z,50.877159
2022-08-30T10:35:43.277Z,50.877132
2022-08-30T10:36:43.283Z,50.877144
2022-08-30T10:37:43.261Z,50.877148
2022-08-30T10:38:43.258Z,50.877144
2022-08-30T10:39:43.243Z,50.877148
2022-08-30T10:40:43.288Z,50.877163
2022-08-30T10:41:43.239Z,50.877151
2022-08-30T10:42:43.209Z,50.877136
2022-08-30T10:43:43.194Z,50.877163
2022-08-30T10:44:43.183Z,50.877125
2022-08-30T10:45:43.194Z,50.877144
2022-08-30T10:46:43.163Z,50.877159
2022-08-30T10:47:43.178Z,50.877155
2022-08-30T10:48:44.509Z,50.877151
2022-08-30T10:49:43.148Z,50.877151
2022-08-30T10:50:43.123Z,50.877155
2022-08-30T10:51:43.120Z,50.877186
2022-08-30T10:52:43.109Z,50.877159
2022-08-30T10:53:43.114Z,50.877151
2022-08-30T10:54:43.107Z,50.877144
2022-08-30T10:55:45.765Z,50.877155
2022-08-30T10:56:44.084Z,50.877163
2022-08-30T10:58:44.132Z,50.877163
2022-08-30T10:59:43.063Z,50.877144
2022-08-30T11:00:43.085Z,50.877136
2022-08-30T11:01:46.613Z,50.877155
2022-08-30T11:02:43.016Z,50.877182
2022-08-30T11:03:42.999Z,50.877174
2022-08-30T11:04:45.514Z,50.877151
2022-08-30T11:05:42.998Z,50.877186
2022-08-30T11:06:42.974Z,50.877193
2022-08-30T11:07:42.966Z,50.877190
2022-08-30T11:08:42.968Z,50.877136
2022-08-30T11:09:42.952Z,50.877148
2022-08-30T11:10:42.962Z,50.877171
2022-08-30T11:11:43.925Z,50.877232
2022-08-30T11:12:42.922Z,50.877216
2022-08-30T11:13:42.907Z,50.877216
2022-08-30T11:14:43.267Z,50.877167
2022-08-30T11:15:43.902Z,50.877079
2022-08-30T11:16:43.302Z,50.877163
2022-08-30T11:17:42.905Z,50.877144
2022-08-30T11:18:43.356Z,50.877159
2022-08-30T11:19:42.855Z,50.877167
2022-08-30T11:20:42.848Z,50.877205
2022-08-30T11:21:42.844Z,50.877174
2022-08-30T11:22:42.853Z,50.877167
2022-08-30T11:23:42.812Z,50.877148
2022-08-30T11:24:42.803Z,50.877193
2022-08-30T11:25:42.790Z,50.877205
2022-08-30T11:26:42.781Z,50.877220
2022-08-30T11:27:42.803Z,50.877159